createdAt,value
2022-08-20T00:00:37.574Z,1008.15
2022-08-20T00:01:37.644Z,1008.12
2022-08-20T00:02:37.573Z,1008.11
2022-08-20T00:03:37.567Z,1008.10
2022-08-20T00:04:39.647Z,1008.08
2022-08-20T00:05:37.570Z,1008.09
2022-08-20T00:06:37.564Z,1008.07
2022-08-20T00:07:37.562Z,1008.12
2022-08-20T00:08:37.564Z,1008.20
2022-08-20T00:09:37.555Z,1008.19
2022-08-20T00:10:37.556Z,1008.22
2022-08-20T00:11:37.557Z,1008.20
2022-08-20T00:12:37.557Z,1008.20
2022-08-20T00:13:37.552Z,1008.22
2022-08-20T00:14:37.552Z,1008.22
2022-08-20T00:15:37.556Z,1008.21
2022-08-20T00:16:37.551Z,1008.21
2022-08-20T00:17:37.550Z,1008.21
2022-08-20T00:18:37.548Z,1008.21
2022-08-20T00:19:37.545Z,1008.20
2022-08-20T00:20:37.545Z,1008.19
2022-08-20T00:21:37.539Z,1008.17
2022-08-20T00:22:37.539Z,1008.20
2022-08-20T00:23:37.540Z,1008.20
2022-08-20T00:24:37.539Z,1008.21
2022-08-20T00:25:37.533Z,1008.19
2022-08-20T00:26:37.536Z,1008.24
2022-08-20T00:27:37.532Z,1008.26
2022-08-20T00:28:37.532Z,1008.28
2022-08-20T00:29:37.533Z,1008.26
2022-08-20T00:30:37.528Z,1008.23
2022-08-20T00:31:37.528Z,1008.26
2022-08-20T00:32:37.526Z,1008.25
2022-08-20T00:33:37.519Z,1008.29
2022-08-20T00:34:37.519Z,1008.30
2022-08-20T00:35:37.520Z,1008.27
2022-08-20T00:36:37.519Z,1008.29
2022-08-20T00:37:37.518Z,1008.31
2022-08-20T00:38:37.526Z,1008.34
2022-08-20T00:39:37.541Z,1008.25
2022-08-20T00:40:37.513Z,1008.30
2022-08-20T00:41:37.512Z,1008.31
2022-08-20T00:42:37.520Z,1008.25
2022-08-20T00:43:37.508Z,1008.30
2022-08-20T00:44:37.509Z,1008.24
2022-08-20T00:45:37.512Z,1008.28
2022-08-20T00:46:37.499Z,1008.28
2022-08-20T00:47:37.503Z,1008.26
2022-08-20T00:48:37.500Z,1008.26
2022-08-20T00:49:37.498Z,1008.24
2022-08-20T00:50:37.501Z,1008.24
2022-08-20T00:51:37.498Z,1008.23
2022-08-20T00:52:37.535Z,1008.27
2022-08-20T00:53:37.496Z,1008.22
2022-08-20T00:54:37.490Z,1008.19
2022-08-20T00:55:37.490Z,1008.21
2022-08-20T00:56:37.490Z,1008.20
2022-08-20T00:57:51.222Z,1008.21
2022-08-20T00:58:37.485Z,1008.22
2022-08-20T00:59:37.484Z,1008.24
2022-08-20T01:00:37.481Z,1008.24
2022-08-20T01:01:54.862Z,1008.25
2022-08-20T01:02:37.481Z,1008.26
2022-08-20T01:03:37.481Z,1008.30
2022-08-20T01:04:37.489Z,1008.26
2022-08-20T01:05:37.474Z,1008.26
2022-08-20T01:06:37.470Z,1008.29
2022-08-20T01:07:37.510Z,1008.26
2022-08-20T01:08:37.467Z,1008.33
2022-08-20T01:09:57.731Z,1008.32
2022-08-20T01:10:37.462Z,1008.32
2022-08-20T01:11:38.057Z,1008.34
2022-08-20T01:12:37.464Z,1008.32
2022-08-20T01:13:37.462Z,1008.32
2022-08-20T01:14:37.465Z,1008.36
2022-08-20T01:15:42.562Z,1008.37
2022-08-20T01:16:37.456Z,1008.33
2022-08-20T01:17:37.461Z,1008.38
2022-08-20T01:18:37.452Z,1008.38
2022-08-20T01:19:37.449Z,1008.42
2022-08-20T01:20:37.451Z,1008.39
2022-08-20T01:21:37.451Z,1008.39
2022-08-20T01:22:37.444Z,1008.38
2022-08-20T01:23:37.444Z,1008.38
2022-08-20T01:24:37.441Z,1008.42
2022-08-20T01:25:37.441Z,1008.36
2022-08-20T01:26:37.450Z,1008.43
2022-08-20T01:27:42.755Z,1008.44
2022-08-20T01:28:37.435Z,1008.40
2022-08-20T01:29:37.432Z,1008.46
2022-08-20T01:30:37.434Z,1008.45
2022-08-20T01:31:37.432Z,1008.44
2022-08-20T01:32:37.435Z,1008.43
2022-08-20T01:33:37.425Z,1008.39
2022-08-20T01:34:37.426Z,1008.43
2022-08-20T01:35:37.426Z,1008.39
2022-08-20T01:36:37.424Z,1008.41
2022-08-20T01:37:37.419Z,1008.42
2022-08-20T01:38:37.418Z,1008.42
2022-08-20T01:39:37.476Z,1008.41
2022-08-20T01:40:37.418Z,1008.43
2022-08-20T01:41:37.417Z,1008.43
2022-08-20T01:42:37.417Z,1008.50
2022-08-20T01:43:37.410Z,1008.46
2022-08-20T01:44:37.417Z,1008.51
2022-08-20T01:45:37.404Z,1008.49
2022-08-20T01:46:37.400Z,1008.50
2022-08-20T01:47:38.691Z,1008.50
2022-08-20T01:48:37.420Z,1008.52
2022-08-20T01:49:37.406Z,1008.50
2022-08-20T01:50:37.397Z,1008.53
2022-08-20T01:51:37.401Z,1008.55
2022-08-20T01:52:37.396Z,1008.52
2022-08-20T01:53:37.393Z,1008.52
2022-08-20T01:54:37.391Z,1008.51
2022-08-20T01:55:37.391Z,1008.54
2022-08-20T01:56:37.392Z,1008.54
2022-08-20T01:57:37.383Z,1008.55
2022-08-20T01:58:37.382Z,1008.56
2022-08-20T01:59:37.382Z,1008.60
2022-08-20T02:00:37.378Z,1008.60
2022-08-20T02:01:46.561Z,1008.59
2022-08-20T02:02:37.376Z,1008.57
2022-08-20T02:03:40.788Z,1008.63
2022-08-20T02:04:37.409Z,1008.58
2022-08-20T02:05:37.370Z,1008.58
2022-08-20T02:06:37.364Z,1008.62
2022-08-20T02:07:37.366Z,1008.55
2022-08-20T02:08:37.362Z,1008.59
2022-08-20T02:09:37.362Z,1008.60
2022-08-20T02:10:37.360Z,1008.60
2022-08-20T02:11:37.359Z,1008.60
2022-08-20T02:12:37.359Z,1008.58
2022-08-20T02:13:37.356Z,1008.60
2022-08-20T02:14:37.354Z,1008.58
2022-08-20T02:15:39.839Z,1008.58
2022-08-20T02:16:37.345Z,1008.61
2022-08-20T02:17:37.349Z,1008.59
2022-08-20T02:18:37.348Z,1008.61
2022-08-20T02:19:37.358Z,1008.61
2022-08-20T02:20:37.344Z,1008.60
2022-08-20T02:21:37.339Z,1008.64
2022-08-20T02:22:37.438Z,1008.63
2022-08-20T02:23:37.336Z,1008.65
2022-08-20T02:24:37.335Z,1008.66
2022-08-20T02:25:37.334Z,1008.67
2022-08-20T02:26:37.330Z,1008.68
2022-08-20T02:27:37.331Z,1008.65
2022-08-20T02:28:37.328Z,1008.67
2022-08-20T02:29:37.328Z,1008.68
2022-08-20T02:30:37.321Z,1008.68
2022-08-20T02:31:37.322Z,1008.66
2022-08-20T02:32:37.316Z,1008.68
2022-08-20T02:33:37.381Z,1008.65
2022-08-20T02:34:37.315Z,1008.66
2022-08-20T02:35:37.318Z,1008.71
2022-08-20T02:36:37.312Z,1008.71
2022-08-20T02:37:37.321Z,1008.68
2022-08-20T02:38:37.309Z,1008.67
2022-08-20T02:39:37.342Z,1008.67
2022-08-20T02:40:37.305Z,1008.66
2022-08-20T02:41:37.303Z,1008.70
2022-08-20T02:42:37.298Z,1008.68
2022-08-20T02:43:37.297Z,1008.70
2022-08-20T02:44:37.296Z,1008.71
2022-08-20T02:45:37.358Z,1008.74
2022-08-20T02:46:37.422Z,1008.75
2022-08-20T02:47:37.291Z,1008.72
2022-08-20T02:48:37.286Z,1008.77
2022-08-20T02:49:37.292Z,1008.73
2022-08-20T02:50:37.285Z,1008.76
2022-08-20T02:51:37.282Z,1008.76
2022-08-20T02:52:37.282Z,1008.81
2022-08-20T02:53:37.294Z,1008.78
2022-08-20T02:54:37.276Z,1008.81
2022-08-20T02:55:37.274Z,1008.82
2022-08-20T02:56:37.272Z,1008.84
2022-08-20T02:57:37.269Z,1008.83
2022-08-20T02:58:37.273Z,1008.81
2022-08-20T02:59:37.268Z,1008.82
2022-08-20T03:00:38.287Z,1008.81
2022-08-20T03:01:37.305Z,1008.78
2022-08-20T03:02:37.270Z,1008.78
2022-08-20T03:03:37.259Z,1008.79
2022-08-20T03:04:37.256Z,1008.81
2022-08-20T03:05:39.212Z,1008.77
2022-08-20T03:06:37.261Z,1008.74
2022-08-20T03:07:37.253Z,1008.76
2022-08-20T03:08:37.250Z,1008.78
2022-08-20T03:09:37.249Z,1008.76
2022-08-20T03:10:37.247Z,1008.74
2022-08-20T03:11:37.244Z,1008.71
2022-08-20T03:12:37.242Z,1008.67
2022-08-20T03:13:37.248Z,1008.65
2022-08-20T03:14:37.240Z,1008.59
2022-08-20T03:15:37.240Z,1008.59
2022-08-20T03:16:37.243Z,1008.62
2022-08-20T03:17:37.231Z,1008.60
2022-08-20T03:18:37.229Z,1008.55
2022-08-20T03:19:37.236Z,1008.59
2022-08-20T03:20:37.230Z,1008.58
2022-08-20T03:21:37.244Z,1008.60
2022-08-20T03:22:37.224Z,1008.54
2022-08-20T03:23:37.224Z,1008.54
2022-08-20T03:24:37.224Z,1008.53
2022-08-20T03:25:37.216Z,1008.53
2022-08-20T03:26:37.219Z,1008.48
2022-08-20T03:27:37.215Z,1008.50
2022-08-20T03:28:37.224Z,1008.45
2022-08-20T03:29:37.211Z,1008.49
2022-08-20T03:30:37.211Z,1008.43
2022-08-20T03:31:37.208Z,1008.45
2022-08-20T03:32:37.204Z,1008.42
2022-08-20T03:33:37.204Z,1008.45
2022-08-20T03:34:37.208Z,1008.44
2022-08-20T03:35:37.203Z,1008.45
2022-08-20T03:36:37.203Z,1008.43
2022-08-20T03:37:37.196Z,1008.45
2022-08-20T03:38:37.197Z,1008.43
2022-08-20T03:39:37.237Z,1008.46
2022-08-20T03:40:37.192Z,1008.42
2022-08-20T03:41:37.188Z,1008.42
2022-08-20T03:42:37.187Z,1008.40
2022-08-20T03:43:37.186Z,1008.40
2022-08-20T03:44:37.198Z,1008.41
2022-08-20T03:45:37.187Z,1008.38
2022-08-20T03:46:37.180Z,1008.38
2022-08-20T03:47:37.181Z,1008.38
2022-08-20T03:48:37.176Z,1008.43
2022-08-20T03:49:37.173Z,1008.39
2022-08-20T03:50:37.174Z,1008.41
2022-08-20T03:51:56.481Z,1008.39
2022-08-20T03:52:37.168Z,1008.41
2022-08-20T03:53:37.165Z,1008.40
2022-08-20T03:54:37.165Z,1008.39
2022-08-20T03:55:37.165Z,1008.38
2022-08-20T03:56:37.161Z,1008.41
2022-08-20T03:57:37.159Z,1008.45
2022-08-20T03:58:37.158Z,1008.45
2022-08-20T03:59:37.160Z,1008.45
2022-08-20T04:00:37.166Z,1008.49
2022-08-20T04:01:45.983Z,1008.48
2022-08-20T04:02:37.153Z,1008.48
2022-08-20T04:03:37.146Z,1008.50
2022-08-20T04:04:37.146Z,1008.53
2022-08-20T04:05:37.144Z,1008.53
2022-08-20T04:06:37.142Z,1008.56
2022-08-20T04:07:37.143Z,1008.52
2022-08-20T04:08:37.138Z,1008.53
2022-08-20T04:09:37.136Z,1008.53
2022-08-20T04:10:37.142Z,1008.55
2022-08-20T04:11:37.131Z,1008.55
2022-08-20T04:12:37.130Z,1008.58
2022-08-20T04:13:41.800Z,1008.57
2022-08-20T04:14:37.127Z,1008.56
2022-08-20T04:15:37.126Z,1008.54
2022-08-20T04:16:37.122Z,1008.59
2022-08-20T04:17:37.119Z,1008.62
2022-08-20T04:18:37.118Z,1008.62
2022-08-20T04:19:37.122Z,1008.63
2022-08-20T04:20:37.118Z,1008.63
2022-08-20T04:21:37.113Z,1008.69
2022-08-20T04:22:37.114Z,1008.67
2022-08-20T04:23:37.108Z,1008.73
2022-08-20T04:24:37.109Z,1008.74
2022-08-20T04:25:37.104Z,1008.75
2022-08-20T04:26:37.105Z,1008.74
2022-08-20T04:27:37.103Z,1008.77
2022-08-20T04:28:37.099Z,1008.79
2022-08-20T04:29:37.096Z,1008.77
2022-08-20T04:30:37.098Z,1008.75
2022-08-20T04:31:37.091Z,1008.76
2022-08-20T04:32:37.088Z,1008.76
2022-08-20T04:33:37.089Z,1008.70
2022-08-20T04:34:37.091Z,1008.74
2022-08-20T04:35:37.085Z,1008.72
2022-08-20T04:36:37.084Z,1008.74
2022-08-20T04:37:37.081Z,1008.74
2022-08-20T04:38:48.446Z,1008.72
2022-08-20T04:39:37.099Z,1008.75
2022-08-20T04:40:37.079Z,1008.76
2022-08-20T04:41:37.075Z,1008.74
2022-08-20T04:42:37.079Z,1008.76
2022-08-20T04:43:37.070Z,1008.78
2022-08-20T04:44:37.069Z,1008.78
2022-08-20T04:45:37.070Z,1008.78
2022-08-20T04:46:37.066Z,1008.80
2022-08-20T04:47:37.064Z,1008.78
2022-08-20T04:48:37.060Z,1008.80
2022-08-20T04:49:37.053Z,1008.79
2022-08-20T04:50:37.056Z,1008.80
2022-08-20T04:51:37.156Z,1008.77
2022-08-20T04:52:37.051Z,1008.76
2022-08-20T04:53:37.049Z,1008.78
2022-08-20T04:54:37.048Z,1008.79
2022-08-20T04:55:37.045Z,1008.79
2022-08-20T04:56:37.044Z,1008.81
2022-08-20T04:57:37.042Z,1008.80
2022-08-20T04:58:37.039Z,1008.80
2022-08-20T04:59:37.042Z,1008.81
2022-08-20T05:00:37.031Z,1008.83
2022-08-20T05:01:37.081Z,1008.86
2022-08-20T05:02:37.032Z,1008.84
2022-08-20T05:03:37.034Z,1008.86
2022-08-20T05:04:37.028Z,1008.85
2022-08-20T05:05:37.030Z,1008.84
2022-08-20T05:06:37.023Z,1008.80
2022-08-20T05:07:37.024Z,1008.85
2022-08-20T05:08:37.021Z,1008.83
2022-08-20T05:09:43.846Z,1008.83
2022-08-20T05:10:37.019Z,1008.83
2022-08-20T05:11:37.164Z,1008.83
2022-08-20T05:12:37.007Z,1008.88
2022-08-20T05:13:37.009Z,1008.87
2022-08-20T05:14:37.015Z,1008.86
2022-08-20T05:15:37.004Z,1008.96
2022-08-20T05:16:37.011Z,1008.96
2022-08-20T05:17:37.000Z,1008.97
2022-08-20T05:18:36.998Z,1009.00
2022-08-20T05:19:38.873Z,1008.99
2022-08-20T05:20:36.995Z,1009.00
2022-08-20T05:21:37.014Z,1009.02
2022-08-20T05:22:36.994Z,1009.02
2022-08-20T05:23:36.997Z,1009.05
2022-08-20T05:24:36.988Z,1009.04
2022-08-20T05:25:36.991Z,1009.07
2022-08-20T05:26:37.000Z,1009.07
2022-08-20T05:27:36.984Z,1009.06
2022-08-20T05:28:51.369Z,1009.08
2022-08-20T05:29:36.994Z,1009.08
2022-08-20T05:30:36.974Z,1009.03
2022-08-20T05:31:36.974Z,1009.05
2022-08-20T05:32:44.660Z,1009.02
2022-08-20T05:33:36.973Z,1009.07
2022-08-20T05:34:45.632Z,1009.04
2022-08-20T05:36:40.969Z,1009.00
2022-08-20T05:37:40.951Z,1009.01
2022-08-20T05:38:40.946Z,1009.00
2022-08-20T05:39:40.999Z,1009.01
2022-08-20T05:40:40.945Z,1009.04
2022-08-20T05:41:40.945Z,1009.04
2022-08-20T05:42:40.938Z,1009.02
2022-08-20T05:43:40.941Z,1009.05
2022-08-20T05:44:40.935Z,1009.04
2022-08-20T05:45:40.932Z,1009.01
2022-08-20T05:46:41.075Z,1009.03
2022-08-20T05:47:51.303Z,1009.00
2022-08-20T05:48:40.927Z,1009.00
2022-08-20T05:49:40.928Z,1009.03
2022-08-20T05:50:40.920Z,1009.00
2022-08-20T05:51:40.925Z,1009.04
2022-08-20T05:52:40.916Z,1009.02
2022-08-20T05:53:40.919Z,1009.05
2022-08-20T05:54:40.916Z,1009.05
2022-08-20T05:55:40.912Z,1009.09
2022-08-20T05:56:40.912Z,1009.07
2022-08-20T05:57:40.914Z,1009.05
2022-08-20T05:58:40.912Z,1009.11
2022-08-20T05:59:40.907Z,1009.08
2022-08-20T06:00:40.905Z,1009.06
2022-08-20T06:01:40.942Z,1009.07
2022-08-20T06:02:40.898Z,1009.06
2022-08-20T06:03:40.898Z,1009.03
2022-08-20T06:04:40.898Z,1009.04
2022-08-20T06:05:40.900Z,1009.06
2022-08-20T06:06:46.172Z,1009.00
2022-08-20T06:07:40.893Z,1009.03
2022-08-20T06:08:40.891Z,1009.04
2022-08-20T06:09:44.324Z,1009.00
2022-08-20T06:10:43.305Z,1009.03
2022-08-20T06:11:40.890Z,1009.02
2022-08-20T06:12:40.883Z,1009.05
2022-08-20T06:13:40.880Z,1009.02
2022-08-20T06:14:40.878Z,1009.06
2022-08-20T06:15:40.877Z,1009.06
2022-08-20T06:16:57.113Z,1009.08
2022-08-20T06:17:40.875Z,1009.11
2022-08-20T06:18:40.880Z,1009.11
2022-08-20T06:19:41.672Z,1009.11
2022-08-20T06:20:40.869Z,1009.13
2022-08-20T06:21:40.871Z,1009.12
2022-08-20T06:22:40.865Z,1009.13
2022-08-20T06:23:56.897Z,1009.15
2022-08-20T06:24:40.864Z,1009.16
2022-08-20T06:25:40.865Z,1009.18
2022-08-20T06:26:40.859Z,1009.23
2022-08-20T06:27:40.858Z,1009.22
2022-08-20T06:28:40.855Z,1009.24
2022-08-20T06:29:40.855Z,1009.28
2022-08-20T06:30:40.850Z,1009.27
2022-08-20T06:31:40.851Z,1009.28
2022-08-20T06:32:40.850Z,1009.28
2022-08-20T06:33:40.849Z,1009.29
2022-08-20T06:34:50.185Z,1009.32
2022-08-20T06:35:40.843Z,1009.37
2022-08-20T06:36:40.842Z,1009.37
2022-08-20T06:37:40.841Z,1009.38
2022-08-20T06:38:40.841Z,1009.44
2022-08-20T06:39:40.872Z,1009.42
2022-08-20T06:40:40.835Z,1009.44
2022-08-20T06:41:40.835Z,1009.45
2022-08-20T06:42:44.474Z,1009.42
2022-08-20T06:43:40.834Z,1009.43
2022-08-20T06:44:40.829Z,1009.43
2022-08-20T06:45:40.830Z,1009.39
2022-08-20T06:46:40.825Z,1009.43
2022-08-20T06:47:40.823Z,1009.43
2022-08-20T06:48:40.820Z,1009.39
2022-08-20T06:49:40.826Z,1009.38
2022-08-20T06:50:47.207Z,1009.40
2022-08-20T06:51:41.472Z,1009.41
2022-08-20T06:52:51.663Z,1009.40
2022-08-20T06:53:40.814Z,1009.42
2022-08-20T06:54:40.818Z,1009.42
2022-08-20T06:55:40.812Z,1009.45
2022-08-20T06:56:40.810Z,1009.47
2022-08-20T06:57:40.807Z,1009.45
2022-08-20T06:58:40.804Z,1009.44
2022-08-20T06:59:40.805Z,1009.51
2022-08-20T07:00:40.835Z,1009.53
2022-08-20T07:01:40.871Z,1009.48
2022-08-20T07:02:40.822Z,1009.52
2022-08-20T07:03:42.124Z,1009.50
2022-08-20T07:04:40.792Z,1009.49
2022-08-20T07:05:40.798Z,1009.48
2022-08-20T07:06:40.798Z,1009.47
2022-08-20T07:07:40.791Z,1009.48
2022-08-20T07:08:40.790Z,1009.50
2022-08-20T07:09:40.790Z,1009.53
2022-08-20T07:10:40.783Z,1009.51
2022-08-20T07:11:40.784Z,1009.53
2022-08-20T07:12:40.786Z,1009.51
2022-08-20T07:13:40.790Z,1009.51
2022-08-20T07:14:40.781Z,1009.53
2022-08-20T07:15:40.779Z,1009.54
2022-08-20T07:16:40.773Z,1009.54
2022-08-20T07:17:40.776Z,1009.55
2022-08-20T07:18:40.781Z,1009.57
2022-08-20T07:19:40.771Z,1009.59
2022-08-20T07:20:40.766Z,1009.56
2022-08-20T07:21:40.773Z,1009.59
2022-08-20T07:22:40.765Z,1009.57
2022-08-20T07:23:40.936Z,1009.59
2022-08-20T07:24:42.018Z,1009.59
2022-08-20T07:25:40.759Z,1009.65
2022-08-20T07:26:40.763Z,1009.62
2022-08-20T07:27:40.856Z,1009.66
2022-08-20T07:28:40.766Z,1009.71
2022-08-20T07:29:40.774Z,1009.71
2022-08-20T07:30:56.174Z,1009.76
2022-08-20T07:31:42.126Z,1009.76
2022-08-20T07:32:45.227Z,1009.77
2022-08-20T07:33:40.749Z,1009.78
2022-08-20T07:34:41.030Z,1009.75
2022-08-20T07:35:40.750Z,1009.80
2022-08-20T07:36:40.744Z,1009.81
2022-08-20T07:37:40.742Z,1009.83
2022-08-20T07:38:40.742Z,1009.86
2022-08-20T07:39:40.770Z,1009.88
2022-08-20T07:40:40.742Z,1009.90
2022-08-20T07:41:40.742Z,1009.89
2022-08-20T07:42:40.738Z,1009.89
2022-08-20T07:43:40.735Z,1009.89
2022-08-20T07:44:40.737Z,1009.85
2022-08-20T07:45:40.736Z,1009.90
2022-08-20T07:46:40.732Z,1009.89
2022-08-20T07:47:40.733Z,1009.90
2022-08-20T07:48:40.728Z,1009.90
2022-08-20T07:49:40.729Z,1009.89
2022-08-20T07:50:40.726Z,1009.89
2022-08-20T07:51:40.724Z,1009.90
2022-08-20T07:52:40.724Z,1009.89
2022-08-20T07:53:40.722Z,1009.88
2022-08-20T07:54:40.723Z,1009.85
2022-08-20T07:55:40.720Z,1009.84
2022-08-20T07:56:40.720Z,1009.83
2022-08-20T07:57:40.721Z,1009.81
2022-08-20T07:58:40.719Z,1009.79
2022-08-20T07:59:40.716Z,1009.77
2022-08-20T08:00:40.735Z,1009.77
2022-08-20T08:01:40.710Z,1009.77
2022-08-20T08:02:40.712Z,1009.80
2022-08-20T08:03:49.840Z,1009.79
2022-08-20T08:04:40.711Z,1009.79
2022-08-20T08:05:40.708Z,1009.79
2022-08-20T08:06:40.710Z,1009.82
2022-08-20T08:07:40.705Z,1009.81
2022-08-20T08:08:40.703Z,1009.84
2022-08-20T08:09:40.706Z,1009.87
2022-08-20T08:10:40.700Z,1009.88
2022-08-20T08:11:44.931Z,1009.86
2022-08-20T08:12:40.700Z,1009.91
2022-08-20T08:13:40.701Z,1009.91
2022-08-20T08:14:40.692Z,1009.92
2022-08-20T08:15:40.694Z,1009.95
2022-08-20T08:16:40.695Z,1009.95
2022-08-20T08:17:40.692Z,1010.00
2022-08-20T08:18:40.696Z,1010.01
2022-08-20T08:19:40.690Z,1009.99
2022-08-20T08:20:47.021Z,1010.00
2022-08-20T08:21:40.688Z,1010.01
2022-08-20T08:22:40.688Z,1009.99
2022-08-20T08:23:40.687Z,1010.00
2022-08-20T08:24:40.683Z,1010.00
2022-08-20T08:25:40.688Z,1010.01
2022-08-20T08:26:40.690Z,1010.02
2022-08-20T08:27:40.683Z,1010.04
2022-08-20T08:28:40.678Z,1010.00
2022-08-20T08:29:40.679Z,1010.05
2022-08-20T08:30:40.677Z,1010.03
2022-08-20T08:31:40.676Z,1010.04
2022-08-20T08:32:40.675Z,1010.06
2022-08-20T08:33:40.734Z,1010.10
2022-08-20T08:34:40.671Z,1010.10
2022-08-20T08:35:40.793Z,1010.09
2022-08-20T08:36:40.676Z,1010.08
2022-08-20T08:37:40.670Z,1010.11
2022-08-20T08:38:40.669Z,1010.12
2022-08-20T08:39:40.702Z,1010.09
2022-08-20T08:40:40.667Z,1010.10
2022-08-20T08:41:40.667Z,1010.14
2022-08-20T08:42:43.250Z,1010.10
2022-08-20T08:43:40.666Z,1010.09
2022-08-20T08:44:40.663Z,1010.08
2022-08-20T08:45:40.664Z,1010.06
2022-08-20T08:46:40.662Z,1010.06
2022-08-20T08:47:40.662Z,1010.11
2022-08-20T08:48:40.663Z,1010.08
2022-08-20T08:49:40.661Z,1010.01
2022-08-20T08:50:53.611Z,1010.00
2022-08-20T08:51:40.660Z,1010.01
2022-08-20T08:52:40.658Z,1010.00
2022-08-20T08:53:40.660Z,1010.02
2022-08-20T08:54:40.655Z,1009.99
2022-08-20T08:55:40.653Z,1009.98
2022-08-20T08:56:40.650Z,1009.96
2022-08-20T08:57:40.656Z,1009.98
2022-08-20T08:58:40.648Z,1010.02
2022-08-20T08:59:48.734Z,1010.03
2022-08-20T09:00:52.813Z,1010.02
2022-08-20T09:01:55.499Z,1010.00
2022-08-20T09:02:40.694Z,1010.01
2022-08-20T09:03:40.646Z,1010.05
2022-08-20T09:04:40.654Z,1010.07
2022-08-20T09:05:40.643Z,1010.05
2022-08-20T09:06:40.694Z,1010.11
2022-08-20T09:07:40.643Z,1010.12
2022-08-20T09:08:40.646Z,1010.13
2022-08-20T09:09:40.642Z,1010.14
2022-08-20T09:10:40.641Z,1010.13
2022-08-20T09:11:40.637Z,1010.13
2022-08-20T09:12:43.359Z,1010.16
2022-08-20T09:13:40.641Z,1010.14
2022-08-20T09:14:40.635Z,1010.18
2022-08-20T09:15:40.639Z,1010.18
2022-08-20T09:16:52.231Z,1010.16
2022-08-20T09:17:40.641Z,1010.17
2022-08-20T09:18:40.631Z,1010.19
2022-08-20T09:19:40.633Z,1010.20
2022-08-20T09:20:40.633Z,1010.23
2022-08-20T09:21:40.631Z,1010.26
2022-08-20T09:22:40.633Z,1010.24
2022-08-20T09:23:40.635Z,1010.25
2022-08-20T09:24:40.628Z,1010.24
2022-08-20T09:25:40.630Z,1010.28
2022-08-20T09:26:40.627Z,1010.30
2022-08-20T09:27:41.436Z,1010.28
2022-08-20T09:28:40.625Z,1010.28
2022-08-20T09:29:40.627Z,1010.32
2022-08-20T09:30:40.625Z,1010.34
2022-08-20T09:31:40.620Z,1010.35
2022-08-20T09:32:40.625Z,1010.36
2022-08-20T09:33:40.622Z,1010.34
2022-08-20T09:34:40.625Z,1010.33
2022-08-20T09:35:40.620Z,1010.29
2022-08-20T09:36:40.620Z,1010.28
2022-08-20T09:37:40.622Z,1010.32
2022-08-20T09:38:40.621Z,1010.30
2022-08-20T09:39:40.674Z,1010.28
2022-08-20T09:40:40.615Z,1010.28
2022-08-20T09:41:40.619Z,1010.30
2022-08-20T09:42:41.839Z,1010.31
2022-08-20T09:43:40.617Z,1010.30
2022-08-20T09:44:40.610Z,1010.27
2022-08-20T09:45:40.614Z,1010.30
2022-08-20T09:46:40.614Z,1010.32
2022-08-20T09:47:55.262Z,1010.32
2022-08-20T09:48:40.614Z,1010.33
2022-08-20T09:49:40.615Z,1010.34
2022-08-20T09:50:40.611Z,1010.36
2022-08-20T09:51:40.611Z,1010.35
2022-08-20T09:52:40.907Z,1010.34
2022-08-20T09:53:40.612Z,1010.36
2022-08-20T09:54:46.291Z,1010.34
2022-08-20T09:55:40.609Z,1010.34
2022-08-20T09:56:40.607Z,1010.34
2022-08-20T09:57:40.613Z,1010.35
2022-08-20T09:58:40.605Z,1010.35
2022-08-20T09:59:40.605Z,1010.38
2022-08-20T10:00:40.614Z,1010.34
2022-08-20T10:01:40.660Z,1010.36
2022-08-20T10:02:40.604Z,1010.37
2022-08-20T10:03:41.769Z,1010.34
2022-08-20T10:04:40.606Z,1010.36
2022-08-20T10:05:40.631Z,1010.34
2022-08-20T10:06:40.603Z,1010.35
2022-08-20T10:07:40.602Z,1010.36
2022-08-20T10:08:40.600Z,1010.32
2022-08-20T10:09:40.603Z,1010.33
2022-08-20T10:10:40.602Z,1010.36
2022-08-20T10:11:40.697Z,1010.35
2022-08-20T10:12:40.602Z,1010.35
2022-08-20T10:13:40.601Z,1010.30
2022-08-20T10:14:40.601Z,1010.37
2022-08-20T10:15:41.971Z,1010.35
2022-08-20T10:16:40.600Z,1010.34
2022-08-20T10:17:40.606Z,1010.34
2022-08-20T10:18:40.606Z,1010.33
2022-08-20T10:19:40.600Z,1010.31
2022-08-20T10:20:40.596Z,1010.34
2022-08-20T10:21:40.601Z,1010.31
2022-08-20T10:22:40.598Z,1010.33
2022-08-20T10:23:40.599Z,1010.35
2022-08-20T10:24:40.596Z,1010.34
2022-08-20T10:25:40.618Z,1010.35
2022-08-20T10:26:40.594Z,1010.33
2022-08-20T10:27:40.601Z,1010.36
2022-08-20T10:28:40.601Z,1010.35
2022-08-20T10:29:43.996Z,1010.36
2022-08-20T10:30:40.602Z,1010.37
2022-08-20T10:31:40.644Z,1010.34
2022-08-20T10:32:40.599Z,1010.35
2022-08-20T10:33:40.601Z,1010.38
2022-08-20T10:34:40.603Z,1010.36
2022-08-20T10:35:40.601Z,1010.36
2022-08-20T10:36:40.600Z,1010.33
2022-08-20T10:37:40.600Z,1010.37
2022-08-20T10:38:40.601Z,1010.34
2022-08-20T10:39:40.639Z,1010.34
2022-08-20T10:40:40.601Z,1010.36
2022-08-20T10:41:40.599Z,1010.37
2022-08-20T10:42:42.774Z,1010.33
2022-08-20T10:43:40.599Z,1010.37
2022-08-20T10:44:40.600Z,1010.32
2022-08-20T10:45:40.597Z,1010.36
2022-08-20T10:46:40.602Z,1010.31
2022-08-20T10:47:40.621Z,1010.33
2022-08-20T10:48:40.596Z,1010.34
2022-08-20T10:49:40.599Z,1010.36
2022-08-20T10:50:40.600Z,1010.32
2022-08-20T10:51:40.603Z,1010.33
2022-08-20T10:52:40.599Z,1010.33
2022-08-20T10:53:40.598Z,1010.30
2022-08-20T10:54:40.600Z,1010.32
2022-08-20T10:55:40.595Z,1010.30
2022-08-20T10:56:40.624Z,1010.31
2022-08-20T10:57:40.676Z,1010.32
2022-08-20T10:58:41.400Z,1010.34
2022-08-20T10:59:40.621Z,1010.37
2022-08-20T11:00:40.599Z,1010.32
2022-08-20T11:01:40.675Z,1010.37
2022-08-20T11:02:40.600Z,1010.37
2022-08-20T11:03:40.598Z,1010.38
2022-08-20T11:04:40.600Z,1010.40
2022-08-20T11:05:40.599Z,1010.43
2022-08-20T11:06:40.598Z,1010.45
2022-08-20T11:07:52.829Z,1010.46
2022-08-20T11:08:40.599Z,1010.43
2022-08-20T11:09:40.596Z,1010.43
2022-08-20T11:10:40.598Z,1010.48
2022-08-20T11:11:40.600Z,1010.48
2022-08-20T11:12:40.601Z,1010.45
2022-08-20T11:13:40.600Z,1010.48
2022-08-20T11:14:40.595Z,1010.51
2022-08-20T11:15:40.598Z,1010.51
2022-08-20T11:16:40.611Z,1010.47
2022-08-20T11:17:41.473Z,1010.48
2022-08-20T11:18:43.763Z,1010.48
2022-08-20T11:19:40.818Z,1010.49
2022-08-20T11:20:40.925Z,1010.53
2022-08-20T11:21:40.605Z,1010.49
2022-08-20T11:22:40.603Z,1010.51
2022-08-20T11:23:40.616Z,1010.52
2022-08-20T11:24:40.602Z,1010.53
2022-08-20T11:25:40.622Z,1010.52
2022-08-20T11:26:40.607Z,1010.46
2022-08-20T11:27:40.621Z,1010.52
2022-08-20T11:28:40.614Z,1010.49
2022-08-20T11:29:40.605Z,1010.49
2022-08-20T11:30:40.603Z,1010.48
2022-08-20T11:31:40.626Z,1010.48
2022-08-20T11:32:40.602Z,1010.50
2022-08-20T11:33:40.604Z,1010.50
2022-08-20T11:34:40.628Z,1010.51
2022-08-20T11:37:12.767Z,1010.48
2022-08-20T11:38:12.755Z,1010.47
2022-08-20T11:39:12.766Z,1010.52
2022-08-20T11:40:12.910Z,1010.49
2022-08-20T11:41:12.848Z,1010.52
2022-08-20T11:42:12.755Z,1010.51
2022-08-20T11:43:15.581Z,1010.51
2022-08-20T11:44:20.126Z,1010.50
2022-08-20T11:45:12.752Z,1010.54
2022-08-20T11:46:12.755Z,1010.56
2022-08-20T11:47:12.770Z,1010.51
2022-08-20T11:48:12.760Z,1010.53
2022-08-20T11:49:12.758Z,1010.56
2022-08-20T11:50:12.761Z,1010.53
2022-08-20T11:51:12.755Z,1010.52
2022-08-20T11:52:12.755Z,1010.55
2022-08-20T11:53:12.751Z,1010.55
2022-08-20T11:54:12.757Z,1010.55
2022-08-20T11:55:12.779Z,1010.54
2022-08-20T11:56:13.430Z,1010.59
2022-08-20T11:57:12.753Z,1010.63
2022-08-20T11:58:12.753Z,1010.63
2022-08-20T11:59:12.828Z,1010.60
2022-08-20T12:00:12.764Z,1010.64
2022-08-20T12:01:12.752Z,1010.65
2022-08-20T12:02:12.815Z,1010.64
2022-08-20T12:03:12.792Z,1010.68
2022-08-20T12:04:12.755Z,1010.63
2022-08-20T12:05:12.828Z,1010.62
2022-08-20T12:06:12.751Z,1010.62
2022-08-20T12:07:12.751Z,1010.65
2022-08-20T12:08:27.636Z,1010.65